Time;durP1;ratioP1;P1;durP2;ratioP2;P2;SDS_P1;SDS_P2;PMS_P1;PMS_P2;Temp;Humidity;BMP_temperature;BMP_pressure;BME280_temperature;BME280_humidity;BME280_pressure;Samples;Min_cycle;Max_cycle;Signal;HPM_P1;HPM_P2
2022/09/21 00:00:10;;;;;;;9.73;6.53;;;27.40;99.90;;;;;;4143786;28;20052;-70
2022/09/21 00:02:17;;;;;;;11.93;6.30;;;27.40;99.90;;;;;;4143375;28;20056;-70
2022/09/21 00:04:23;;;;;;;11.00;6.85;;;27.40;99.90;;;;;;4143530;28;20042;-71
2022/09/21 00:06:29;;;;;;;9.88;6.95;;;27.50;99.90;;;;;;4144001;28;20456;-70
2022/09/21 00:08:35;;;;;;;11.18;7.18;;;27.50;99.90;;;;;;4144257;28;20446;-70
2022/09/21 00:10:42;;;;;;;9.35;6.78;;;27.50;99.90;;;;;;4142459;28;20057;-70
2022/09/21 00:12:47;;;;;;;10.35;7.25;;;27.50;99.90;;;;;;4142552;28;20041;-70
2022/09/21 00:14:55;;;;;;;11.82;7.32;;;27.50;99.90;;;;;;4131921;28;20049;-71
2022/09/21 00:17:02;;;;;;;11.15;7.20;;;27.50;99.90;;;;;;4174515;28;20131;-71
2022/09/21 00:19:08;;;;;;;11.95;7.35;;;27.50;99.90;;;;;;4144034;28;20045;-69
2022/09/21 00:21:13;;;;;;;12.27;7.07;;;27.50;99.90;;;;;;4142774;28;20089;-70
2022/09/21 00:23:22;;;;;;;10.25;7.07;;;27.50;99.90;;;;;;4143694;28;20555;-70
2022/09/21 00:25:26;;;;;;;10.85;7.57;;;27.60;99.90;;;;;;4142673;28;20496;-70
2022/09/21 00:27:33;;;;;;;8.95;7.13;;;27.60;99.90;;;;;;4141247;28;20058;-71
2022/09/21 00:29:39;;;;;;;12.40;8.50;;;27.60;99.90;;;;;;4143886;28;20058;-70
2022/09/21 00:31:44;;;;;;;12.38;8.45;;;27.60;99.90;;;;;;4145183;28;20084;-70
2022/09/21 00:33:52;;;;;;;49.75;21.52;;;27.70;99.90;;;;;;4146557;28;20128;-70
2022/09/21 00:36:04;;;;;;;22.70;13.23;;;27.70;99.90;;;;;;4146051;28;20053;-70
2022/09/21 00:38:10;;;;;;;16.30;9.55;;;27.70;99.90;;;;;;4161582;28;20516;-70
2022/09/21 00:40:16;;;;;;;14.23;8.65;;;27.70;99.90;;;;;;4145221;28;20083;-70
2022/09/21 00:42:27;;;;;;;11.18;7.53;;;27.70;99.90;;;;;;4145232;28;20042;-70
2022/09/21 00:44:32;;;;;;;13.68;7.55;;;27.70;99.90;;;;;;4146623;28;20045;-70
2022/09/21 00:46:38;;;;;;;9.30;6.18;;;27.80;99.90;;;;;;4177142;28;20413;-70
2022/09/21 00:48:45;;;;;;;9.35;6.82;;;27.90;99.90;;;;;;4176463;28;20048;-70
2022/09/21 00:50:52;;;;;;;9.85;7.00;;;27.90;99.90;;;;;;4144657;28;20057;-69
2022/09/21 00:52:59;;;;;;;9.70;6.15;;;28.00;99.90;;;;;;4144023;28;20065;-69
2022/09/21 00:55:21;;;;;;;9.35;5.95;;;28.00;99.90;;;;;;4144337;28;20049;-69
2022/09/21 00:57:29;;;;;;;6.90;5.57;;;28.10;99.90;;;;;;4144313;28;20046;-71
2022/09/21 00:59:36;;;;;;;8.65;5.43;;;28.00;99.90;;;;;;4122027;28;20046;-71
2022/09/21 01:01:43;;;;;;;8.38;5.95;;;28.10;99.90;;;;;;4143558;28;20042;-71
2022/09/21 01:03:48;;;;;;;8.48;5.20;;;28.10;99.90;;;;;;4143932;28;20078;-73
2022/09/21 01:05:55;;;;;;;9.00;5.60;;;28.10;99.90;;;;;;4143571;28;20046;-70
2022/09/21 01:08:07;;;;;;;6.88;5.22;;;28.20;99.90;;;;;;4144048;28;20053;-69
2022/09/21 01:10:15;;;;;;;7.20;5.03;;;28.20;99.90;;;;;;4126614;28;20050;-69
2022/09/21 01:12:52;;;;;;;6.53;4.40;;;28.20;99.90;;;;;;4143462;28;20045;-70
2022/09/21 01:15:11;;;;;;;6.40;4.40;;;28.20;99.90;;;;;;4142050;28;20151;-69
2022/09/21 01:17:15;;;;;;;10.02;5.40;;;28.20;99.90;;;;;;4142500;28;20132;-70
2022/09/21 01:19:35;;;;;;;6.32;5.18;;;28.20;99.90;;;;;;4143557;28;20046;-67
2022/09/21 01:21:52;;;;;;;10.48;6.22;;;28.20;99.90;;;;;;4126996;28;20042;-69
2022/09/21 01:24:16;;;;;;;11.30;7.35;;;28.30;99.90;;;;;;4149778;28;20069;-70
2022/09/21 01:26:33;;;;;;;11.63;6.47;;;28.30;99.90;;;;;;4172045;28;20692;-70
2022/09/21 01:28:56;;;;;;;14.95;6.32;;;28.00;99.90;;;;;;4142610;28;20050;-69
2022/09/21 01:31:06;;;;;;;8.98;6.45;;;28.00;99.90;;;;;;4145736;28;20068;-68
2022/09/21 01:33:24;;;;;;;15.57;6.60;;;27.90;99.90;;;;;;4142022;28;20140;-73
2022/09/21 01:35:48;;;;;;;10.23;6.20;;;28.00;99.90;;;;;;4150364;28;20076;-69
2022/09/21 01:38:12;;;;;;;11.93;6.10;;;28.10;99.90;;;;;;4146476;28;20476;-70
2022/09/21 01:40:25;;;;;;;10.85;6.07;;;28.20;99.90;;;;;;4148673;28;20050;-69
2022/09/21 01:42:39;;;;;;;10.18;6.63;;;28.20;99.90;;;;;;4147593;28;20467;-69
2022/09/21 01:44:44;;;;;;;10.10;6.78;;;28.20;99.90;;;;;;4147225;28;20073;-69
2022/09/21 01:46:51;;;;;;;9.82;6.45;;;28.10;99.90;;;;;;4160896;28;20074;-69
2022/09/21 01:48:59;;;;;;;9.55;5.95;;;28.20;99.90;;;;;;4147887;28;20070;-71
2022/09/21 01:51:06;;;;;;;9.85;6.53;;;28.30;99.90;;;;;;4137801;28;20062;-71
2022/09/21 01:53:37;;;;;;;10.68;6.45;;;28.30;99.90;;;;;;4142148;28;20061;-72
2022/09/21 01:55:49;;;;;;;12.45;6.50;;;28.40;99.90;;;;;;4146754;28;20112;-71
2022/09/21 01:58:21;;;;;;;9.23;6.70;;;28.20;99.90;;;;;;4151301;28;20132;-71
2022/09/21 02:00:29;;;;;;;7.10;5.68;;;28.30;99.90;;;;;;4144745;28;20154;-71
2022/09/21 02:02:52;;;;;;;11.18;6.30;;;28.40;99.90;;;;;;4162482;28;20508;-70
2022/09/21 02:05:05;;;;;;;11.45;6.10;;;28.50;99.90;;;;;;4162506;28;20063;-70
2022/09/21 02:07:14;;;;;;;9.63;5.50;;;28.70;99.90;;;;;;4158370;28;20174;-70
2022/09/21 02:09:21;;;;;;;8.32;5.72;;;28.70;99.90;;;;;;4130466;28;20054;-70
2022/09/21 02:11:28;;;;;;;7.90;5.22;;;28.80;99.90;;;;;;4154051;28;20395;-70
2022/09/21 02:13:36;;;;;;;7.57;5.55;;;28.90;99.90;;;;;;4162742;28;20061;-70
2022/09/21 02:15:51;;;;;;;10.32;6.35;;;29.00;99.90;;;;;;4157135;28;20103;-70
2022/09/21 02:18:05;;;;;;;9.68;7.15;;;29.10;99.90;;;;;;4156483;28;20531;-70
2022/09/21 02:20:27;;;;;;;12.70;6.38;;;29.30;99.90;;;;;;4162238;28;20060;-70
2022/09/21 02:22:43;;;;;;;8.43;6.45;;;29.40;99.90;;;;;;4162314;28;20046;-70
2022/09/21 02:25:03;;;;;;;9.55;6.03;;;29.50;99.90;;;;;;4155360;28;20041;-71
2022/09/21 02:27:33;;;;;;;9.27;5.90;;;29.50;99.90;;;;;;4133569;28;20237;-71
2022/09/21 02:30:04;;;;;;;10.07;5.72;;;29.60;99.90;;;;;;4145454;28;20053;-70
2022/09/21 02:32:32;;;;;;;8.90;6.22;;;29.60;99.90;;;;;;4148208;28;20046;-70
2022/09/21 02:34:48;;;;;;;7.82;5.78;;;29.60;99.90;;;;;;4156421;28;20100;-71
2022/09/21 02:37:00;;;;;;;8.13;6.57;;;29.70;99.90;;;;;;4161855;28;20100;-70
2022/09/21 02:39:09;;;;;;;7.68;6.00;;;29.80;99.90;;;;;;4154430;28;20452;-70
2022/09/21 02:41:40;;;;;;;8.05;6.22;;;29.90;99.90;;;;;;4146029;28;20045;-70
2022/09/21 02:43:57;;;;;;;8.98;6.10;;;29.90;99.90;;;;;;4146383;28;20058;-70
2022/09/21 02:46:19;;;;;;;6.93;5.40;;;30.00;99.90;;;;;;4147676;28;20385;-70
2022/09/21 02:48:31;;;;;;;8.98;5.70;;;30.10;99.90;;;;;;4193216;28;20400;-70
2022/09/21 02:50:50;;;;;;;7.72;5.60;;;30.10;99.90;;;;;;4191293;28;20048;-70
2022/09/21 02:53:03;;;;;;;9.07;4.97;;;30.10;99.90;;;;;;4191741;28;20471;-71
2022/09/21 02:55:09;;;;;;;8.10;5.15;;;30.20;99.90;;;;;;4177035;28;20047;-70
2022/09/21 02:57:21;;;;;;;6.45;5.28;;;30.30;99.90;;;;;;4176073;28;20041;-70
2022/09/21 02:59:42;;;;;;;6.55;5.70;;;30.40;99.90;;;;;;4133063;28;20054;-68
2022/09/21 03:01:48;;;;;;;9.27;6.13;;;30.50;99.90;;;;;;4142034;28;20172;-68
2022/09/21 03:03:56;;;;;;;6.50;5.35;;;30.50;99.90;;;;;;4140608;28;20042;-70
2022/09/21 03:06:04;;;;;;;6.90;5.18;;;30.50;99.90;;;;;;4145764;28;20065;-70
2022/09/21 03:08:12;;;;;;;6.43;5.15;;;30.40;99.90;;;;;;4147296;28;20845;-72
2022/09/21 03:10:24;;;;;;;9.43;4.93;;;30.40;99.90;;;;;;4147369;28;20144;-70
2022/09/21 03:12:31;;;;;;;6.07;4.43;;;30.40;99.90;;;;;;4147250;28;20081;-73
2022/09/21 03:14:50;;;;;;;7.47;4.45;;;30.50;99.90;;;;;;4146364;28;20517;-73
2022/09/21 03:17:00;;;;;;;8.60;4.15;;;30.60;99.90;;;;;;4144957;28;20050;-73
2022/09/21 03:19:14;;;;;;;7.05;4.07;;;30.60;99.90;;;;;;4130639;28;20070;-73
2022/09/21 03:21:20;;;;;;;7.10;4.35;;;30.60;99.90;;;;;;4147228;28;20046;-73
2022/09/21 03:23:27;;;;;;;6.90;4.15;;;30.60;99.90;;;;;;4131158;28;20046;-73
2022/09/21 03:25:37;;;;;;;7.63;3.95;;;30.60;99.90;;;;;;4160607;28;20049;-73
2022/09/21 03:27:42;;;;;;;4.75;3.90;;;30.70;99.90;;;;;;4161818;28;20049;-74
2022/09/21 03:29:47;;;;;;;5.47;3.50;;;30.70;99.90;;;;;;4160947;28;20080;-73
2022/09/21 03:31:54;;;;;;;5.47;4.10;;;30.70;99.90;;;;;;4160557;28;20052;-73
2022/09/21 03:33:59;;;;;;;5.05;3.90;;;30.70;99.90;;;;;;4130641;28;20058;-73
2022/09/21 03:36:06;;;;;;;4.10;3.15;;;30.70;99.90;;;;;;4170874;28;20048;-73
2022/09/21 03:38:15;;;;;;;5.68;3.55;;;30.70;99.90;;;;;;4147085;28;20050;-73
2022/09/21 03:40:20;;;;;;;6.75;5.40;;;30.70;99.90;;;;;;4130302;28;20046;-73
2022/09/21 03:42:27;;;;;;;7.00;4.78;;;30.80;99.90;;;;;;4146984;28;20420;-74
2022/09/21 03:44:36;;;;;;;6.57;4.93;;;30.90;99.90;;;;;;4146401;28;20103;-73
2022/09/21 03:46:40;;;;;;;5.78;4.25;;;30.90;99.90;;;;;;4145960;28;20054;-72
2022/09/21 03:48:47;;;;;;;5.72;4.55;;;30.90;99.90;;;;;;4145661;28;20089;-72
2022/09/21 03:50:53;;;;;;;5.70;3.58;;;31.00;99.90;;;;;;4145837;28;20046;-72
2022/09/21 03:52:58;;;;;;;4.20;3.42;;;31.10;99.90;;;;;;4145529;28;20078;-72
2022/09/21 03:55:05;;;;;;;5.35;4.20;;;31.10;99.90;;;;;;4144197;28;20045;-72
2022/09/21 03:57:12;;;;;;;4.68;3.22;;;31.20;99.90;;;;;;4143820;28;20517;-73
2022/09/21 03:59:17;;;;;;;6.15;4.07;;;31.20;99.90;;;;;;4145204;28;20493;-73
2022/09/21 04:01:24;;;;;;;4.07;3.35;;;31.30;99.90;;;;;;4143610;28;20638;-72
2022/09/21 04:03:31;;;;;;;5.00;3.75;;;31.30;99.90;;;;;;4144048;28;20042;-72
2022/09/21 04:05:37;;;;;;;5.57;3.90;;;31.40;99.90;;;;;;4145304;28;20054;-72
2022/09/21 04:07:53;;;;;;;4.22;3.83;;;31.40;99.90;;;;;;4145124;28;20206;-71
2022/09/21 04:10:01;;;;;;;4.80;4.30;;;31.50;99.90;;;;;;4143980;28;20718;-71
2022/09/21 04:12:07;;;;;;;7.30;4.93;;;31.50;99.90;;;;;;4159620;28;20053;-71
2022/09/21 04:14:16;;;;;;;12.07;4.03;;;31.50;99.90;;;;;;4128621;28;20062;-71
2022/09/21 04:16:25;;;;;;;4.57;4.00;;;31.50;99.90;;;;;;4152414;28;20124;-72
2022/09/21 04:18:31;;;;;;;5.38;3.90;;;31.50;99.90;;;;;;4159479;28;20455;-72
2022/09/21 04:20:51;;;;;;;5.72;4.10;;;31.50;99.90;;;;;;4146214;28;20141;-72
2022/09/21 04:22:57;;;;;;;4.75;4.03;;;31.50;99.90;;;;;;4110867;28;20553;-71
2022/09/21 04:25:15;;;;;;;4.13;3.58;;;31.60;99.90;;;;;;4159324;28;20050;-72
2022/09/21 04:27:27;;;;;;;7.13;4.07;;;31.50;99.90;;;;;;4159071;28;20096;-71
2022/09/21 04:29:53;;;;;;;7.05;4.25;;;31.60;99.90;;;;;;4159132;28;20049;-71
2022/09/21 04:31:58;;;;;;;4.32;3.60;;;31.60;99.90;;;;;;4160087;28;20051;-71
2022/09/21 04:34:06;;;;;;;4.07;3.50;;;31.60;99.90;;;;;;4144428;28;20641;-71
2022/09/21 04:36:21;;;;;;;5.55;3.80;;;31.60;99.90;;;;;;4159917;28;20042;-71
2022/09/21 04:38:27;;;;;;;6.95;4.10;;;31.70;99.90;;;;;;4143891;28;20141;-72
2022/09/21 04:40:35;;;;;;;5.07;3.83;;;31.70;99.90;;;;;;4176443;28;20049;-72
2022/09/21 04:42:42;;;;;;;6.15;4.00;;;31.70;99.90;;;;;;4146201;28;20046;-71
2022/09/21 04:44:47;;;;;;;5.95;3.83;;;31.80;99.90;;;;;;4145842;28;20092;-71
2022/09/21 04:46:54;;;;;;;5.18;3.90;;;31.70;99.90;;;;;;4146185;28;20045;-70
2022/09/21 04:49:01;;;;;;;7.22;3.70;;;31.70;99.90;;;;;;4145674;28;20056;-71
2022/09/21 04:51:09;;;;;;;5.15;4.03;;;31.60;99.90;;;;;;4145989;28;20049;-70
2022/09/21 04:53:17;;;;;;;5.35;3.80;;;31.60;99.90;;;;;;4146265;28;20120;-71
2022/09/21 04:55:24;;;;;;;6.07;3.83;;;31.70;99.90;;;;;;4145910;28;20642;-72
2022/09/21 04:57:41;;;;;;;5.30;4.13;;;31.70;99.90;;;;;;4146098;28;20074;-71
2022/09/21 04:59:46;;;;;;;5.07;3.80;;;31.80;99.90;;;;;;4145900;28;20149;-71
2022/09/21 05:01:53;;;;;;;5.38;4.05;;;31.80;99.90;;;;;;4145483;28;20038;-71
2022/09/21 05:04:02;;;;;;;8.85;4.07;;;31.90;99.50;;;;;;4146433;28;20085;-74
2022/09/21 05:06:10;;;;;;;5.82;4.10;;;31.90;99.70;;;;;;4143547;28;20061;-70
2022/09/21 05:08:17;;;;;;;7.32;4.10;;;32.00;99.30;;;;;;4144444;28;20053;-73
2022/09/21 05:10:22;;;;;;;5.03;4.30;;;31.90;99.00;;;;;;4144840;28;20074;-73
2022/09/21 05:12:33;;;;;;;4.90;3.78;;;31.90;99.20;;;;;;4160339;28;20049;-73
2022/09/21 05:14:46;;;;;;;7.13;4.10;;;32.00;98.80;;;;;;4148985;28;20057;-73
2022/09/21 05:16:51;;;;;;;4.82;3.67;;;31.90;98.70;;;;;;4148692;28;20049;-72
2022/09/21 05:18:58;;;;;;;5.13;3.70;;;31.90;98.60;;;;;;4162797;28;20084;-71
2022/09/21 05:21:06;;;;;;;4.20;3.67;;;31.90;98.80;;;;;;4147442;28;20124;-73
2022/09/21 05:23:10;;;;;;;6.20;4.40;;;32.00;98.80;;;;;;4147642;28;20038;-74
2022/09/21 05:25:19;;;;;;;4.78;3.95;;;32.20;98.70;;;;;;4147046;28;20052;-73
2022/09/21 05:27:25;;;;;;;8.40;4.20;;;32.20;98.30;;;;;;4149030;28;20049;-76
2022/09/21 05:29:30;;;;;;;5.22;4.07;;;32.20;98.00;;;;;;4147738;28;20053;-74
2022/09/21 05:31:41;;;;;;;8.00;4.45;;;32.20;98.50;;;;;;4147980;28;20160;-74
2022/09/21 05:34:02;;;;;;;5.82;4.20;;;32.30;98.20;;;;;;4148154;28;20054;-74
2022/09/21 05:36:39;;;;;;;7.30;4.10;;;32.30;97.50;;;;;;4147998;28;20046;-74
2022/09/21 05:38:47;;;;;;;4.50;4.10;;;32.30;97.40;;;;;;4179071;28;20064;-75
2022/09/21 05:40:53;;;;;;;5.07;3.97;;;32.40;97.60;;;;;;4146936;28;20038;-74
2022/09/21 05:42:58;;;;;;;7.07;4.13;;;32.40;96.90;;;;;;4147675;28;20077;-74
2022/09/21 05:45:06;;;;;;;3.80;3.30;;;32.40;96.80;;;;;;4147705;28;20042;-74
2022/09/21 05:47:29;;;;;;;4.90;3.63;;;32.50;96.30;;;;;;4144042;28;20054;-73
2022/09/21 05:49:53;;;;;;;4.55;3.40;;;32.60;96.00;;;;;;4147269;28;20037;-74
2022/09/21 05:52:28;;;;;;;4.40;3.53;;;32.70;96.00;;;;;;4146784;28;20038;-73
2022/09/21 05:54:40;;;;;;;5.80;3.92;;;32.80;96.00;;;;;;4144245;28;20052;-73
2022/09/21 05:57:03;;;;;;;4.82;3.80;;;32.80;95.80;;;;;;4147060;28;20044;-74
2022/09/21 05:59:35;;;;;;;4.18;3.65;;;32.70;94.10;;;;;;4147527;28;20053;-73
2022/09/21 06:02:04;;;;;;;6.53;3.83;;;32.70;93.70;;;;;;4146507;28;20038;-73
2022/09/21 06:04:12;;;;;;;5.18;3.85;;;32.60;94.10;;;;;;4161443;28;20133;-74
2022/09/21 06:06:19;;;;;;;3.90;3.60;;;32.70;94.50;;;;;;4146293;28;20045;-74
2022/09/21 06:08:25;;;;;;;4.13;3.58;;;32.80;94.10;;;;;;4161948;28;20531;-73
2022/09/21 06:10:32;;;;;;;4.60;3.70;;;32.80;93.60;;;;;;4147226;28;20045;-73
2022/09/21 06:12:39;;;;;;;7.07;3.47;;;32.90;93.90;;;;;;4161800;28;20369;-73
2022/09/21 06:14:46;;;;;;;4.20;3.53;;;32.90;93.60;;;;;;4146114;28;20134;-73
2022/09/21 06:16:51;;;;;;;4.88;3.92;;;32.90;93.70;;;;;;4144567;28;20132;-72
2022/09/21 06:18:58;;;;;;;4.30;3.90;;;32.80;93.90;;;;;;4147072;28;20072;-72
2022/09/21 06:21:06;;;;;;;5.40;3.72;;;32.90;93.90;;;;;;4145617;28;20050;-72
2022/09/21 06:23:11;;;;;;;5.47;3.88;;;33.00;93.90;;;;;;4145372;28;20688;-72
2022/09/21 06:25:20;;;;;;;4.72;3.75;;;33.00;93.60;;;;;;4159101;28;20052;-72
2022/09/21 06:27:28;;;;;;;4.97;3.60;;;33.00;93.20;;;;;;4145974;28;20444;-72
2022/09/21 06:29:32;;;;;;;5.68;4.03;;;33.00;93.80;;;;;;4145622;28;20080;-72
2022/09/21 06:31:45;;;;;;;;;;;33.00;93.60;;;;;;4161050;28;20042;-72
2022/09/21 06:33:54;;;;;;;4.80;3.60;;;33.00;93.30;;;;;;4146890;28;19928;-72
2022/09/21 06:35:59;;;;;;;5.88;4.00;;;33.00;93.40;;;;;;4143577;28;20046;-74
2022/09/21 06:38:14;;;;;;;5.95;3.78;;;32.90;93.10;;;;;;4145828;28;20052;-74
2022/09/21 06:40:25;;;;;;;4.68;3.58;;;32.90;93.50;;;;;;4144714;28;20050;-73
2022/09/21 06:42:30;;;;;;;5.28;3.95;;;32.90;93.30;;;;;;4145621;28;20049;-72
2022/09/21 06:44:36;;;;;;;4.75;4.00;;;33.00;93.90;;;;;;4144126;28;20042;-73
2022/09/21 06:46:42;;;;;;;4.95;3.83;;;33.00;93.90;;;;;;4146817;28;20070;-73
2022/09/21 06:48:47;;;;;;;6.90;3.90;;;33.10;94.20;;;;;;4145439;28;20081;-72
2022/09/21 06:51:02;;;;;;;4.88;3.60;;;33.20;93.70;;;;;;4128792;28;20133;-72
2022/09/21 06:53:06;;;;;;;4.28;3.53;;;33.20;93.50;;;;;;4161838;28;20104;-72
2022/09/21 06:55:11;;;;;;;5.82;3.47;;;33.10;93.40;;;;;;4161408;28;20095;-73
2022/09/21 06:57:18;;;;;;;6.47;3.65;;;33.10;93.00;;;;;;4144964;28;20034;-73
2022/09/21 06:59:26;;;;;;;6.38;3.53;;;33.20;93.20;;;;;;4145459;28;20058;-71
2022/09/21 07:01:30;;;;;;;6.50;3.38;;;33.10;92.60;;;;;;4129869;28;20038;-73
2022/09/21 07:03:38;;;;;;;4.78;3.22;;;33.10;92.60;;;;;;4160818;28;20044;-72
2022/09/21 07:05:45;;;;;;;6.32;3.75;;;33.10;92.20;;;;;;4145345;28;20034;-72
2022/09/21 07:07:50;;;;;;;5.13;3.35;;;33.10;92.40;;;;;;4175095;28;20049;-72
2022/09/21 07:09:58;;;;;;;5.35;3.88;;;33.20;92.90;;;;;;4146371;28;20037;-73
2022/09/21 07:12:19;;;;;;;5.30;3.30;;;33.20;93.60;;;;;;4145505;28;20491;-73
2022/09/21 07:14:24;;;;;;;4.00;3.60;;;33.30;93.60;;;;;;4146416;28;20042;-72
2022/09/21 07:16:29;;;;;;;4.97;4.00;;;33.30;93.60;;;;;;4190412;28;20491;-72
2022/09/21 07:18:37;;;;;;;7.32;3.35;;;33.30;93.70;;;;;;4145145;28;20038;-73
2022/09/21 07:20:47;;;;;;;5.43;3.57;;;33.40;93.30;;;;;;4145107;28;20053;-71
2022/09/21 07:22:52;;;;;;;4.85;3.22;;;33.40;93.10;;;;;;4144819;28;20037;-71
2022/09/21 07:25:00;;;;;;;6.45;3.47;;;33.40;92.50;;;;;;4145201;28;20394;-72
2022/09/21 07:27:05;;;;;;;3.75;3.08;;;33.40;91.40;;;;;;4161045;28;20069;-72
2022/09/21 07:29:10;;;;;;;5.97;3.67;;;33.30;91.00;;;;;;4144838;28;20153;-71
2022/09/21 07:31:16;;;;;;;8.30;3.55;;;33.40;91.10;;;;;;4146220;28;20046;-71
2022/09/21 07:33:21;;;;;;;4.20;3.15;;;33.40;91.10;;;;;;4144928;28;20042;-73
2022/09/21 07:35:27;;;;;;;4.00;3.40;;;33.40;91.40;;;;;;4143409;28;20157;-71
2022/09/21 07:37:34;;;;;;;4.95;3.63;;;33.50;91.50;;;;;;4144482;28;20444;-72
2022/09/21 07:39:38;;;;;;;11.13;3.85;;;33.40;90.90;;;;;;4145426;28;20075;-71
2022/09/21 07:41:44;;;;;;;4.97;3.45;;;33.40;90.70;;;;;;4145893;28;20489;-71
2022/09/21 07:43:52;;;;;;;4.38;3.60;;;33.40;90.10;;;;;;4143730;28;20034;-71
2022/09/21 07:46:02;;;;;;;4.38;3.65;;;33.40;88.10;;;;;;4146009;28;20062;-70
2022/09/21 07:48:13;;;;;;;4.60;3.95;;;33.40;89.70;;;;;;4143193;28;20042;-72
2022/09/21 07:50:28;;;;;;;;;;;33.40;88.90;;;;;;4159905;28;20045;-72
2022/09/21 07:52:38;;;;;;;6.03;4.47;;;33.30;88.10;;;;;;4145612;28;20323;-71
2022/09/21 07:55:05;;;;;;;4.82;4.05;;;33.40;88.90;;;;;;4169609;28;20048;-70
2022/09/21 07:59:42;;;;;;;5.43;3.95;;;33.40;87.80;;;;;;4144056;28;20046;-71
2022/09/21 08:01:52;;;;;;;4.72;4.00;;;33.40;87.90;;;;;;4157568;28;20647;-71
2022/09/21 08:04:03;;;;;;;5.50;3.88;;;33.40;87.20;;;;;;4144264;28;20535;-72
2022/09/21 08:06:23;;;;;;;4.35;3.95;;;33.40;87.80;;;;;;4159416;28;20121;-71
2022/09/21 08:08:35;;;;;;;4.25;3.85;;;33.40;88.20;;;;;;4175548;28;20381;-71
2022/09/21 08:10:43;;;;;;;4.85;4.40;;;33.40;89.00;;;;;;4160074;28;20056;-71
2022/09/21 08:12:48;;;;;;;5.65;3.97;;;33.40;88.40;;;;;;4145299;28;20080;-73
2022/09/21 08:14:54;;;;;;;6.13;3.72;;;33.40;88.60;;;;;;4095528;28;20047;-72
2022/09/21 08:17:03;;;;;;;6.55;4.13;;;33.40;88.50;;;;;;4142451;28;20041;-74
2022/09/21 08:19:08;;;;;;;6.72;4.32;;;33.40;88.00;;;;;;4160587;28;20049;-74
2022/09/21 08:21:14;;;;;;;5.20;4.22;;;33.40;88.00;;;;;;4144293;28;20058;-73
2022/09/21 08:23:21;;;;;;;6.88;4.15;;;33.40;88.00;;;;;;4161117;28;20052;-74
2022/09/21 08:25:27;;;;;;;4.15;3.63;;;33.40;88.40;;;;;;4146316;28;20046;-74
2022/09/21 08:27:31;;;;;;;7.68;4.10;;;33.40;89.10;;;;;;4145283;28;20393;-74
2022/09/21 08:29:38;;;;;;;7.57;4.50;;;33.30;88.90;;;;;;4145001;28;20053;-73
2022/09/21 08:31:45;;;;;;;8.32;4.70;;;33.40;89.10;;;;;;4144940;28;20445;-73
2022/09/21 08:33:50;;;;;;;13.43;4.93;;;33.30;88.70;;;;;;4146431;28;20042;-73
2022/09/21 08:35:58;;;;;;;8.40;4.40;;;33.30;88.70;;;;;;4144136;28;20041;-73
2022/09/21 08:38:03;;;;;;;12.32;5.10;;;33.30;88.40;;;;;;4144864;28;20050;-73
2022/09/21 08:40:11;;;;;;;6.53;4.55;;;33.30;88.60;;;;;;4161235;28;20045;-72
2022/09/21 08:42:24;;;;;;;9.45;4.10;;;33.30;88.70;;;;;;4144063;28;20054;-75
2022/09/21 08:44:42;;;;;;;11.57;4.30;;;33.30;88.80;;;;;;4129442;28;20046;-74
2022/09/21 08:46:57;;;;;;;6.30;4.00;;;33.30;88.90;;;;;;4158883;28;20128;-77
2022/09/21 08:49:24;;;;;;;6.75;3.75;;;33.20;89.50;;;;;;4159410;28;20516;-79
2022/09/21 08:51:31;;;;;;;5.60;3.85;;;33.20;90.00;;;;;;4141792;28;20050;-77
2022/09/21 08:53:43;;;;;;;4.25;3.85;;;33.20;89.30;;;;;;4143628;28;20049;-77
2022/09/21 08:55:51;;;;;;;6.30;4.25;;;33.20;89.60;;;;;;4159640;28;20537;-77
2022/09/21 08:57:55;;;;;;;4.32;3.92;;;33.10;89.30;;;;;;4144050;28;20547;-77
2022/09/21 09:00:03;;;;;;;5.03;4.40;;;33.10;89.90;;;;;;4144056;28;20038;-77
2022/09/21 09:02:31;;;;;;;8.82;4.53;;;33.10;89.80;;;;;;4144434;28;20050;-77
2022/09/21 09:04:58;;;;;;;8.00;6.68;;;33.10;89.60;;;;;;4143158;28;20093;-78
2022/09/21 09:07:39;;;;;;;6.65;4.72;;;33.10;90.20;;;;;;4143822;28;20117;-76
2022/09/21 09:09:58;;;;;;;8.90;5.35;;;33.00;89.40;;;;;;4143861;28;20157;-77
2022/09/21 09:12:05;;;;;;;9.05;5.47;;;33.00;90.10;;;;;;4143936;28;20112;-76
2022/09/21 09:14:26;;;;;;;12.30;6.72;;;33.00;90.30;;;;;;4174828;28;20048;-76
2022/09/21 09:16:56;;;;;;;17.65;10.20;;;33.00;90.40;;;;;;4139540;28;20092;-77
2022/09/21 09:19:23;;;;;;;17.25;10.35;;;33.00;90.40;;;;;;4145716;28;20042;-76
2022/09/21 09:21:42;;;;;;;14.13;8.57;;;33.00;90.40;;;;;;4145920;28;20053;-76
2022/09/21 09:24:03;;;;;;;11.85;8.13;;;33.00;90.60;;;;;;4144588;28;20046;-76
2022/09/21 09:26:16;;;;;;;12.23;7.03;;;33.10;90.70;;;;;;4145802;28;20104;-76
2022/09/21 09:28:28;;;;;;;12.30;6.97;;;33.10;90.80;;;;;;4160544;28;20049;-76
2022/09/21 09:30:33;;;;;;;8.50;6.30;;;33.10;90.70;;;;;;4143789;28;20066;-77
2022/09/21 09:32:54;;;;;;;6.18;4.70;;;33.00;90.60;;;;;;4144507;28;20386;-76
2022/09/21 09:35:23;;;;;;;7.03;5.07;;;33.00;90.40;;;;;;4145952;28;20136;-76
2022/09/21 09:37:32;;;;;;;10.23;5.18;;;33.00;90.60;;;;;;4147643;28;20049;-75
2022/09/21 09:39:38;;;;;;;7.18;4.80;;;32.90;90.80;;;;;;4144193;28;20050;-75
2022/09/21 09:42:09;;;;;;;12.15;4.95;;;33.00;90.70;;;;;;4143187;28;20054;-73
2022/09/21 09:44:40;;;;;;;9.95;4.80;;;33.00;90.70;;;;;;4145006;28;20050;-72
2022/09/21 09:47:10;;;;;;;6.07;4.38;;;33.00;90.90;;;;;;4143293;28;20421;-72
2022/09/21 09:49:29;;;;;;;5.10;4.30;;;33.00;90.60;;;;;;4141151;28;20100;-71
2022/09/21 09:51:36;;;;;;;4.43;3.97;;;32.90;90.70;;;;;;4142798;28;20050;-73
2022/09/21 09:53:43;;;;;;;5.07;4.13;;;32.90;90.90;;;;;;4141533;28;20050;-72
2022/09/21 09:55:51;;;;;;;4.88;4.25;;;32.90;90.90;;;;;;4141593;28;20149;-72
2022/09/21 09:57:55;;;;;;;5.50;4.28;;;32.90;90.90;;;;;;4155857;28;20389;-72
2022/09/21 10:00:08;;;;;;;7.60;4.75;;;33.00;91.10;;;;;;4144853;28;20108;-72
2022/09/21 10:02:21;;;;;;;6.65;4.10;;;33.00;91.20;;;;;;4144629;28;20061;-71
2022/09/21 10:04:29;;;;;;;5.38;4.45;;;32.90;91.60;;;;;;4162418;28;20048;-71
2022/09/21 10:06:36;;;;;;;5.90;4.93;;;33.00;91.60;;;;;;4141493;28;20061;-71
2022/09/21 10:08:48;;;;;;;7.47;4.57;;;33.00;91.60;;;;;;4147050;28;20042;-73
2022/09/21 10:10:53;;;;;;;7.13;4.25;;;32.90;91.70;;;;;;4128421;28;20046;-72
2022/09/21 10:13:11;;;;;;;7.30;4.40;;;32.90;91.70;;;;;;4144622;28;20042;-73
2022/09/21 10:15:30;;;;;;;5.78;4.35;;;33.00;91.80;;;;;;4144014;28;20821;-71
2022/09/21 10:17:41;;;;;;;9.82;4.35;;;32.90;91.90;;;;;;4142438;28;20525;-72
2022/09/21 10:20:13;;;;;;;4.53;3.70;;;32.90;91.90;;;;;;4142861;28;20042;-71
2022/09/21 10:22:25;;;;;;;6.75;4.35;;;32.80;92.00;;;;;;4145792;28;20128;-72
2022/09/21 10:24:32;;;;;;;6.65;5.03;;;32.80;92.20;;;;;;4142760;28;20061;-70
2022/09/21 10:26:48;;;;;;;6.63;5.25;;;32.80;92.30;;;;;;4143445;28;20137;-70
2022/09/21 10:28:59;;;;;;;9.65;5.32;;;32.80;92.50;;;;;;4110582;28;20041;-70
2022/09/21 10:31:17;;;;;;;11.73;6.00;;;32.80;92.70;;;;;;4144077;28;20046;-73
2022/09/21 10:33:26;;;;;;;11.55;5.63;;;32.70;92.80;;;;;;4144020;28;20046;-72
2022/09/21 10:35:33;;;;;;;41.85;35.83;;;32.60;93.20;;;;;;4110767;28;20085;-71
2022/09/21 10:37:40;;;;;;;23.25;19.08;;;32.60;93.10;;;;;;4158872;28;20049;-71
2022/09/21 10:39:49;;;;;;;14.45;11.48;;;32.60;93.10;;;;;;4141983;28;20046;-72
2022/09/21 10:42:12;;;;;;;13.93;6.55;;;32.50;93.30;;;;;;4158835;28;20041;-73
2022/09/21 10:44:19;;;;;;;10.32;6.53;;;32.50;93.50;;;;;;4159067;28;20049;-73
2022/09/21 10:46:34;;;;;;;8.93;5.72;;;32.50;93.50;;;;;;4157756;28;20049;-72
2022/09/21 10:48:46;;;;;;;7.88;5.80;;;32.40;93.70;;;;;;4158888;28;20571;-71
2022/09/21 10:50:53;;;;;;;8.15;6.72;;;32.30;93.70;;;;;;4135859;28;20086;-72
2022/09/21 10:53:16;;;;;;;11.00;6.70;;;32.20;93.60;;;;;;4173818;28;20092;-73
2022/09/21 10:55:24;;;;;;;7.10;5.05;;;32.10;93.90;;;;;;4157208;28;20053;-73
2022/09/21 10:57:31;;;;;;;9.00;5.28;;;32.00;94.20;;;;;;4159424;28;20079;-71
2022/09/21 10:59:38;;;;;;;8.77;5.45;;;32.00;94.40;;;;;;4158559;28;20036;-73
2022/09/21 11:01:46;;;;;;;7.65;5.90;;;32.00;94.60;;;;;;4110098;28;20105;-73
2022/09/21 11:04:02;;;;;;;9.80;6.80;;;32.00;94.70;;;;;;4109743;28;20050;-72
2022/09/21 11:06:34;;;;;;;10.18;6.15;;;32.00;94.80;;;;;;4158435;28;20075;-72
2022/09/21 11:08:46;;;;;;;8.05;6.55;;;32.00;94.90;;;;;;4151595;28;20127;-72
2022/09/21 11:11:03;;;;;;;9.02;6.00;;;31.90;94.90;;;;;;4144532;28;20065;-72
2022/09/21 11:13:24;;;;;;;10.55;6.25;;;31.90;95.10;;;;;;4162308;28;20123;-73
2022/09/21 11:15:43;;;;;;;8.35;6.13;;;31.90;95.40;;;;;;4144990;28;20666;-71
2022/09/21 11:17:58;;;;;;;10.05;5.45;;;31.80;95.30;;;;;;4145681;28;20052;-73
2022/09/21 11:20:10;;;;;;;8.40;7.00;;;31.80;95.30;;;;;;4113130;28;20062;-71
2022/09/21 11:22:34;;;;;;;8.95;6.47;;;31.80;95.50;;;;;;4144138;28;20046;-70
2022/09/21 11:24:56;;;;;;;10.07;7.47;;;31.70;95.70;;;;;;4144263;28;20092;-69